Terminal Aerodrome Forecast
Issued by NWS Charleston, WV

Current Version | Previous Version | Graphics & Text | Print | Product List | Glossary On
Versions: 1 2 3 4 5 6 7 8 9 10 11 12 13 14 15 16 17 18 19 20 21
000
FTUS41 KRLX 281100
TAFHTS
TAF
KHTS 281137Z 2812/2912 04005KT 3SM BR SCT002 OVC007
      TEMPO 2812/2813 6SM BR OVC012
     FM281300 VRB03KT P6SM BKN015
      TEMPO 2813/2816 BKN025
     FM281600 04004KT P6SM SCT030
     FM290600 00000KT 6SM BR FEW100
     FM291000 00000KT 3SM BR SCT090=

USA.gov is the U.S. government's official web portal to all federal, state and local government web resources and services.